sensor_id;sensor_type;location;lat;lon;timestamp;P1;durP1;ratioP1;P2;durP2;ratioP2
20669;SDS011;10494;50.868;4.180;2022-07-09T00:01:26;4.22;;;2.60;;
20669;SDS011;10494;50.868;4.180;2022-07-09T00:03:52;5.63;;;2.58;;
20669;SDS011;10494;50.868;4.180;2022-07-09T00:06:18;3.15;;;2.35;;
20669;SDS011;10494;50.868;4.180;2022-07-09T00:08:44;2.88;;;2.30;;
20669;SDS011;10494;50.868;4.180;2022-07-09T00:11:09;3.42;;;2.83;;
20669;SDS011;10494;50.868;4.180;2022-07-09T00:13:35;4.43;;;3.10;;
20669;SDS011;10494;50.868;4.180;2022-07-09T00:16:01;3.78;;;2.83;;
20669;SDS011;10494;50.868;4.180;2022-07-09T00:18:27;7.05;;;3.30;;
20669;SDS011;10494;50.868;4.180;2022-07-09T00:20:56;3.25;;;2.85;;
20669;SDS011;10494;50.868;4.180;2022-07-09T00:23:21;5.60;;;2.60;;
20669;SDS011;10494;50.868;4.180;2022-07-09T00:25:47;7.85;;;2.85;;
20669;SDS011;10494;50.868;4.180;2022-07-09T00:28:12;4.25;;;2.72;;
20669;SDS011;10494;50.868;4.180;2022-07-09T00:30:38;6.43;;;2.97;;
20669;SDS011;10494;50.868;4.180;2022-07-09T00:33:04;2.92;;;2.40;;
20669;SDS011;10494;50.868;4.180;2022-07-09T00:35:29;4.88;;;2.70;;
20669;SDS011;10494;50.868;4.180;2022-07-09T00:37:55;5.00;;;3.00;;
20669;SDS011;10494;50.868;4.180;2022-07-09T00:40:21;4.10;;;2.45;;
20669;SDS011;10494;50.868;4.180;2022-07-09T00:42:46;3.13;;;2.47;;
20669;SDS011;10494;50.868;4.180;2022-07-09T00:45:12;3.15;;;2.50;;
20669;SDS011;10494;50.868;4.180;2022-07-09T00:47:37;3.63;;;2.78;;
20669;SDS011;10494;50.868;4.180;2022-07-09T00:50:03;2.72;;;2.33;;
20669;SDS011;10494;50.868;4.180;2022-07-09T00:52:30;5.13;;;2.65;;
20669;SDS011;10494;50.868;4.180;2022-07-09T00:54:59;5.68;;;2.50;;
20669;SDS011;10494;50.868;4.180;2022-07-09T00:57:26;2.92;;;2.50;;
20669;SDS011;10494;50.868;4.180;2022-07-09T00:59:53;4.72;;;2.63;;
20669;SDS011;10494;50.868;4.180;2022-07-09T01:02:19;3.08;;;2.63;;
20669;SDS011;10494;50.868;4.180;2022-07-09T01:04:47;6.70;;;2.50;;
20669;SDS011;10494;50.868;4.180;2022-07-09T01:07:13;3.15;;;2.50;;
20669;SDS011;10494;50.868;4.180;2022-07-09T01:09:38;5.75;;;2.80;;
20669;SDS011;10494;50.868;4.180;2022-07-09T01:12:05;3.88;;;2.28;;
20669;SDS011;10494;50.868;4.180;2022-07-09T01:14:32;5.32;;;2.67;;
20669;SDS011;10494;50.868;4.180;2022-07-09T01:17:03;3.45;;;2.67;;
20669;SDS011;10494;50.868;4.180;2022-07-09T01:19:30;3.58;;;2.72;;
20669;SDS011;10494;50.868;4.180;2022-07-09T01:21:57;3.53;;;2.75;;
20669;SDS011;10494;50.868;4.180;2022-07-09T01:24:23;4.93;;;2.58;;
20669;SDS011;10494;50.868;4.180;2022-07-09T01:26:49;7.03;;;3.00;;
20669;SDS011;10494;50.868;4.180;2022-07-09T01:29:16;4.45;;;2.60;;
20669;SDS011;10494;50.868;4.180;2022-07-09T01:31:42;5.40;;;3.22;;
20669;SDS011;10494;50.868;4.180;2022-07-09T01:34:07;3.25;;;2.58;;
20669;SDS011;10494;50.868;4.180;2022-07-09T01:36:33;7.82;;;3.10;;
20669;SDS011;10494;50.868;4.180;2022-07-09T01:38:59;4.75;;;3.40;;
20669;SDS011;10494;50.868;4.180;2022-07-09T01:41:25;5.68;;;3.22;;
20669;SDS011;10494;50.868;4.180;2022-07-09T01:43:50;6.45;;;3.80;;
20669;SDS011;10494;50.868;4.180;2022-07-09T01:46:16;4.00;;;3.10;;
20669;SDS011;10494;50.868;4.180;2022-07-09T01:48:41;4.82;;;3.15;;
20669;SDS011;10494;50.868;4.180;2022-07-09T01:51:08;6.20;;;3.80;;
20669;SDS011;10494;50.868;4.180;2022-07-09T01:53:37;8.05;;;3.20;;
20669;SDS011;10494;50.868;4.180;2022-07-09T01:56:06;8.30;;;3.78;;
20669;SDS011;10494;50.868;4.180;2022-07-09T01:58:33;7.03;;;3.20;;
20669;SDS011;10494;50.868;4.180;2022-07-09T02:00:59;4.13;;;3.38;;
20669;SDS011;10494;50.868;4.180;2022-07-09T02:03:24;4.47;;;3.20;;
20669;SDS011;10494;50.868;4.180;2022-07-09T02:05:50;5.68;;;3.45;;
20669;SDS011;10494;50.868;4.180;2022-07-09T02:08:15;4.68;;;3.60;;
20669;SDS011;10494;50.868;4.180;2022-07-09T02:10:41;7.50;;;4.20;;
20669;SDS011;10494;50.868;4.180;2022-07-09T02:13:07;4.63;;;3.83;;
20669;SDS011;10494;50.868;4.180;2022-07-09T02:15:32;3.88;;;3.38;;
20669;SDS011;10494;50.868;4.180;2022-07-09T02:17:58;5.97;;;3.30;;
20669;SDS011;10494;50.868;4.180;2022-07-09T02:20:24;7.18;;;3.08;;
20669;SDS011;10494;50.868;4.180;2022-07-09T02:22:50;5.70;;;3.28;;
20669;SDS011;10494;50.868;4.180;2022-07-09T02:25:16;3.85;;;3.08;;
20669;SDS011;10494;50.868;4.180;2022-07-09T02:27:42;7.70;;;3.25;;
20669;SDS011;10494;50.868;4.180;2022-07-09T02:30:07;8.90;;;3.60;;
20669;SDS011;10494;50.868;4.180;2022-07-09T02:32:33;4.03;;;3.13;;
20669;SDS011;10494;50.868;4.180;2022-07-09T02:35:01;6.03;;;3.50;;
20669;SDS011;10494;50.868;4.180;2022-07-09T02:37:27;5.45;;;3.35;;
20669;SDS011;10494;50.868;4.180;2022-07-09T02:39:52;5.57;;;3.20;;
20669;SDS011;10494;50.868;4.180;2022-07-09T02:42:18;5.72;;;3.25;;
20669;SDS011;10494;50.868;4.180;2022-07-09T02:44:44;5.43;;;3.88;;
20669;SDS011;10494;50.868;4.180;2022-07-09T02:47:09;6.38;;;3.50;;
20669;SDS011;10494;50.868;4.180;2022-07-09T02:49:35;13.43;;;3.72;;
20669;SDS011;10494;50.868;4.180;2022-07-09T02:52:00;7.30;;;3.67;;
20669;SDS011;10494;50.868;4.180;2022-07-09T02:54:27;6.78;;;3.47;;
20669;SDS011;10494;50.868;4.180;2022-07-09T02:56:53;8.65;;;3.60;;
20669;SDS011;10494;50.868;4.180;2022-07-09T02:59:19;9.70;;;3.88;;
20669;SDS011;10494;50.868;4.180;2022-07-09T03:01:45;8.13;;;3.55;;
20669;SDS011;10494;50.868;4.180;2022-07-09T03:04:12;9.13;;;3.55;;
20669;SDS011;10494;50.868;4.180;2022-07-09T03:06:38;8.30;;;4.70;;
20669;SDS011;10494;50.868;4.180;2022-07-09T03:09:03;10.98;;;3.67;;
20669;SDS011;10494;50.868;4.180;2022-07-09T03:11:29;6.60;;;3.85;;
20669;SDS011;10494;50.868;4.180;2022-07-09T03:13:55;5.60;;;3.92;;
20669;SDS011;10494;50.868;4.180;2022-07-09T03:16:20;9.85;;;4.97;;
20669;SDS011;10494;50.868;4.180;2022-07-09T03:18:46;9.27;;;4.30;;
20669;SDS011;10494;50.868;4.180;2022-07-09T03:21:11;9.52;;;5.18;;
20669;SDS011;10494;50.868;4.180;2022-07-09T03:23:37;6.35;;;5.07;;
20669;SDS011;10494;50.868;4.180;2022-07-09T03:26:06;6.85;;;5.55;;
20669;SDS011;10494;50.868;4.180;2022-07-09T03:28:32;9.98;;;5.32;;
20669;SDS011;10494;50.868;4.180;2022-07-09T03:30:59;9.23;;;6.05;;
20669;SDS011;10494;50.868;4.180;2022-07-09T03:33:24;9.05;;;6.40;;
20669;SDS011;10494;50.868;4.180;2022-07-09T03:35:50;9.63;;;6.72;;
20669;SDS011;10494;50.868;4.180;2022-07-09T03:38:17;9.98;;;6.68;;
20669;SDS011;10494;50.868;4.180;2022-07-09T03:40:43;13.05;;;6.95;;
20669;SDS011;10494;50.868;4.180;2022-07-09T03:43:09;17.60;;;7.40;;
20669;SDS011;10494;50.868;4.180;2022-07-09T03:45:34;12.90;;;6.72;;
20669;SDS011;10494;50.868;4.180;2022-07-09T03:48:00;20.08;;;9.35;;
20669;SDS011;10494;50.868;4.180;2022-07-09T03:50:25;16.95;;;8.32;;
20669;SDS011;10494;50.868;4.180;2022-07-09T03:52:51;12.05;;;7.22;;
20669;SDS011;10494;50.868;4.180;2022-07-09T03:55:17;15.73;;;6.75;;
20669;SDS011;10494;50.868;4.180;2022-07-09T03:57:42;13.00;;;7.00;;
20669;SDS011;10494;50.868;4.180;2022-07-09T04:00:08;11.23;;;7.10;;
20669;SDS011;10494;50.868;4.180;2022-07-09T04:02:34;17.45;;;7.88;;
20669;SDS011;10494;50.868;4.180;2022-07-09T04:04:59;17.05;;;8.32;;
20669;SDS011;10494;50.868;4.180;2022-07-09T04:07:25;15.02;;;8.00;;
20669;SDS011;10494;50.868;4.180;2022-07-09T04:09:54;20.05;;;8.40;;
20669;SDS011;10494;50.868;4.180;2022-07-09T04:12:20;11.25;;;6.85;;
20669;SDS011;10494;50.868;4.180;2022-07-09T04:14:46;14.63;;;7.78;;
20669;SDS011;10494;50.868;4.180;2022-07-09T04:17:12;13.00;;;9.15;;
20669;SDS011;10494;50.868;4.180;2022-07-09T04:19:38;11.38;;;7.90;;
20669;SDS011;10494;50.868;4.180;2022-07-09T04:22:04;13.98;;;7.50;;
20669;SDS011;10494;50.868;4.180;2022-07-09T04:24:29;11.38;;;7.68;;
20669;SDS011;10494;50.868;4.180;2022-07-09T04:26:55;12.75;;;7.40;;
20669;SDS011;10494;50.868;4.180;2022-07-09T04:29:21;13.38;;;8.32;;
20669;SDS011;10494;50.868;4.180;2022-07-09T04:31:47;10.80;;;8.00;;
20669;SDS011;10494;50.868;4.180;2022-07-09T04:34:12;10.60;;;8.55;;
20669;SDS011;10494;50.868;4.180;2022-07-09T04:36:38;11.90;;;7.57;;
20669;SDS011;10494;50.868;4.180;2022-07-09T04:39:04;9.70;;;7.20;;
20669;SDS011;10494;50.868;4.180;2022-07-09T04:41:30;11.30;;;7.18;;
20669;SDS011;10494;50.868;4.180;2022-07-09T04:43:55;13.20;;;6.68;;
20669;SDS011;10494;50.868;4.180;2022-07-09T04:46:21;14.73;;;7.00;;
20669;SDS011;10494;50.868;4.180;2022-07-09T04:48:47;9.57;;;6.90;;
20669;SDS011;10494;50.868;4.180;2022-07-09T04:51:14;11.32;;;7.57;;
20669;SDS011;10494;50.868;4.180;2022-07-09T04:53:40;14.05;;;6.53;;
20669;SDS011;10494;50.868;4.180;2022-07-09T04:56:05;11.05;;;6.55;;
20669;SDS011;10494;50.868;4.180;2022-07-09T04:58:34;10.02;;;6.18;;
20669;SDS011;10494;50.868;4.180;2022-07-09T05:01:02;15.00;;;8.80;;
20669;SDS011;10494;50.868;4.180;2022-07-09T05:03:28;18.58;;;7.75;;
20669;SDS011;10494;50.868;4.180;2022-07-09T05:05:53;11.20;;;9.52;;
20669;SDS011;10494;50.868;4.180;2022-07-09T05:08:19;12.65;;;8.07;;
20669;SDS011;10494;50.868;4.180;2022-07-09T05:10:44;12.75;;;8.88;;
20669;SDS011;10494;50.868;4.180;2022-07-09T05:13:10;11.88;;;7.43;;
20669;SDS011;10494;50.868;4.180;2022-07-09T05:15:36;15.55;;;9.68;;
20669;SDS011;10494;50.868;4.180;2022-07-09T05:18:02;17.83;;;10.10;;
20669;SDS011;10494;50.868;4.180;2022-07-09T05:20:27;13.70;;;10.07;;
20669;SDS011;10494;50.868;4.180;2022-07-09T05:22:53;14.00;;;10.00;;
20669;SDS011;10494;50.868;4.180;2022-07-09T05:25:19;17.23;;;10.25;;
20669;SDS011;10494;50.868;4.180;2022-07-09T05:27:45;14.50;;;11.18;;
20669;SDS011;10494;50.868;4.180;2022-07-09T05:30:12;13.55;;;9.73;;
20669;SDS011;10494;50.868;4.180;2022-07-09T05:32:39;17.70;;;9.60;;
20669;SDS011;10494;50.868;4.180;2022-07-09T05:35:06;16.48;;;10.35;;
20669;SDS011;10494;50.868;4.180;2022-07-09T05:37:32;14.07;;;9.55;;
20669;SDS011;10494;50.868;4.180;2022-07-09T05:39:58;13.15;;;10.52;;
20669;SDS011;10494;50.868;4.180;2022-07-09T05:42:25;15.23;;;9.60;;
20669;SDS011;10494;50.868;4.180;2022-07-09T05:44:50;25.50;;;11.32;;
20669;SDS011;10494;50.868;4.180;2022-07-09T05:47:16;14.60;;;10.75;;
20669;SDS011;10494;50.868;4.180;2022-07-09T05:49:42;13.55;;;10.32;;
20669;SDS011;10494;50.868;4.180;2022-07-09T05:52:07;17.73;;;9.75;;
20669;SDS011;10494;50.868;4.180;2022-07-09T05:54:33;15.60;;;9.82;;
20669;SDS011;10494;50.868;4.180;2022-07-09T05:56:59;12.93;;;9.40;;
20669;SDS011;10494;50.868;4.180;2022-07-09T05:59:24;13.45;;;9.48;;
20669;SDS011;10494;50.868;4.180;2022-07-09T06:01:50;13.60;;;10.32;;
20669;SDS011;10494;50.868;4.180;2022-07-09T06:04:15;11.82;;;8.27;;
20669;SDS011;10494;50.868;4.180;2022-07-09T06:06:41;18.27;;;10.35;;
20669;SDS011;10494;50.868;4.180;2022-07-09T06:09:07;15.57;;;8.48;;
20669;SDS011;10494;50.868;4.180;2022-07-09T06:11:32;15.43;;;8.82;;
20669;SDS011;10494;50.868;4.180;2022-07-09T06:13:58;12.13;;;9.27;;
20669;SDS011;10494;50.868;4.180;2022-07-09T06:16:24;18.05;;;10.00;;
20669;SDS011;10494;50.868;4.180;2022-07-09T06:18:49;18.10;;;10.73;;
20669;SDS011;10494;50.868;4.180;2022-07-09T06:21:15;14.75;;;9.52;;
20669;SDS011;10494;50.868;4.180;2022-07-09T06:23:40;13.15;;;10.43;;
20669;SDS011;10494;50.868;4.180;2022-07-09T06:26:06;15.10;;;11.18;;
20669;SDS011;10494;50.868;4.180;2022-07-09T06:28:31;14.93;;;10.07;;
20669;SDS011;10494;50.868;4.180;2022-07-09T06:31:00;15.05;;;9.18;;
20669;SDS011;10494;50.868;4.180;2022-07-09T06:33:25;18.08;;;10.18;;
20669;SDS011;10494;50.868;4.180;2022-07-09T06:35:51;11.23;;;9.07;;
20669;SDS011;10494;50.868;4.180;2022-07-09T06:38:16;12.65;;;8.95;;
20669;SDS011;10494;50.868;4.180;2022-07-09T06:40:42;13.93;;;8.80;;
20669;SDS011;10494;50.868;4.180;2022-07-09T06:43:08;11.02;;;8.23;;
20669;SDS011;10494;50.868;4.180;2022-07-09T06:45:37;13.10;;;9.40;;
20669;SDS011;10494;50.868;4.180;2022-07-09T06:48:03;11.65;;;8.27;;
20669;SDS011;10494;50.868;4.180;2022-07-09T06:50:29;11.20;;;8.45;;
20669;SDS011;10494;50.868;4.180;2022-07-09T06:52:54;10.43;;;7.93;;
20669;SDS011;10494;50.868;4.180;2022-07-09T06:55:20;11.93;;;6.88;;
20669;SDS011;10494;50.868;4.180;2022-07-09T06:57:46;10.95;;;7.65;;
20669;SDS011;10494;50.868;4.180;2022-07-09T07:00:12;9.70;;;7.35;;
20669;SDS011;10494;50.868;4.180;2022-07-09T07:02:39;13.77;;;7.10;;
20669;SDS011;10494;50.868;4.180;2022-07-09T07:05:04;14.52;;;7.05;;
20669;SDS011;10494;50.868;4.180;2022-07-09T07:07:30;15.27;;;6.40;;
20669;SDS011;10494;50.868;4.180;2022-07-09T07:09:56;14.27;;;7.03;;
20669;SDS011;10494;50.868;4.180;2022-07-09T07:12:22;12.68;;;6.85;;
20669;SDS011;10494;50.868;4.180;2022-07-09T07:14:47;13.82;;;6.28;;
20669;SDS011;10494;50.868;4.180;2022-07-09T07:17:13;15.10;;;5.63;;
20669;SDS011;10494;50.868;4.180;2022-07-09T07:19:38;9.65;;;5.40;;
20669;SDS011;10494;50.868;4.180;2022-07-09T07:22:04;11.20;;;5.93;;
20669;SDS011;10494;50.868;4.180;2022-07-09T07:24:30;9.30;;;5.63;;
20669;SDS011;10494;50.868;4.180;2022-07-09T07:26:56;7.60;;;5.25;;
20669;SDS011;10494;50.868;4.180;2022-07-09T07:29:22;13.50;;;5.60;;
20669;SDS011;10494;50.868;4.180;2022-07-09T07:31:48;10.30;;;5.63;;
20669;SDS011;10494;50.868;4.180;2022-07-09T07:34:14;9.25;;;4.72;;
20669;SDS011;10494;50.868;4.180;2022-07-09T07:36:40;9.93;;;5.47;;
20669;SDS011;10494;50.868;4.180;2022-07-09T07:39:06;10.32;;;5.18;;
20669;SDS011;10494;50.868;4.180;2022-07-09T07:41:32;7.18;;;4.82;;
20669;SDS011;10494;50.868;4.180;2022-07-09T07:43:57;18.48;;;6.32;;
20669;SDS011;10494;50.868;4.180;2022-07-09T07:46:23;9.40;;;4.35;;
20669;SDS011;10494;50.868;4.180;2022-07-09T07:48:49;13.93;;;6.32;;
20669;SDS011;10494;50.868;4.180;2022-07-09T07:51:15;10.07;;;6.60;;
20669;SDS011;10494;50.868;4.180;2022-07-09T07:53:41;10.50;;;6.47;;
20669;SDS011;10494;50.868;4.180;2022-07-09T07:56:06;11.60;;;6.22;;
20669;SDS011;10494;50.868;4.180;2022-07-09T07:58:32;13.23;;;5.82;;
20669;SDS011;10494;50.868;4.180;2022-07-09T08:00:58;10.45;;;4.97;;
20669;SDS011;10494;50.868;4.180;2022-07-09T08:03:24;12.20;;;6.05;;
20669;SDS011;10494;50.868;4.180;2022-07-09T08:05:50;8.68;;;4.78;;
20669;SDS011;10494;50.868;4.180;2022-07-09T08:08:16;7.25;;;4.60;;
20669;SDS011;10494;50.868;4.180;2022-07-09T08:10:43;8.82;;;4.72;;
20669;SDS011;10494;50.868;4.180;2022-07-09T08:13:09;10.85;;;4.57;;
20669;SDS011;10494;50.868;4.180;2022-07-09T08:15:36;8.85;;;5.03;;
20669;SDS011;10494;50.868;4.180;2022-07-09T08:18:02;9.02;;;4.75;;
20669;SDS011;10494;50.868;4.180;2022-07-09T08:20:28;10.80;;;4.60;;
20669;SDS011;10494;50.868;4.180;2022-07-09T08:22:54;6.30;;;4.40;;
20669;SDS011;10494;50.868;4.180;2022-07-09T08:25:19;8.68;;;4.07;;
20669;SDS011;10494;50.868;4.180;2022-07-09T08:27:45;7.15;;;3.97;;
20669;SDS011;10494;50.868;4.180;2022-07-09T08:30:10;8.85;;;4.25;;
20669;SDS011;10494;50.868;4.180;2022-07-09T08:32:36;8.25;;;4.53;;
20669;SDS011;10494;50.868;4.180;2022-07-09T08:35:03;10.50;;;4.93;;
20669;SDS011;10494;50.868;4.180;2022-07-09T08:37:29;8.60;;;5.10;;
20669;SDS011;10494;50.868;4.180;2022-07-09T08:39:55;7.63;;;5.38;;
20669;SDS011;10494;50.868;4.180;2022-07-09T08:42:20;7.95;;;5.32;;
20669;SDS011;10494;50.868;4.180;2022-07-09T08:44:47;10.38;;;5.82;;
20669;SDS011;10494;50.868;4.180;2022-07-09T08:47:16;9.77;;;6.40;;
20669;SDS011;10494;50.868;4.180;2022-07-09T08:49:41;15.48;;;8.38;;
20669;SDS011;10494;50.868;4.180;2022-07-09T08:52:11;11.02;;;7.75;;
20669;SDS011;10494;50.868;4.180;2022-07-09T08:54:38;13.75;;;7.75;;
20669;SDS011;10494;50.868;4.180;2022-07-09T08:57:06;13.07;;;9.85;;
20669;SDS011;10494;50.868;4.180;2022-07-09T08:59:32;13.13;;;9.00;;
20669;SDS011;10494;50.868;4.180;2022-07-09T09:02:02;12.15;;;10.23;;
20669;SDS011;10494;50.868;4.180;2022-07-09T09:04:33;18.27;;;10.07;;
20669;SDS011;10494;50.868;4.180;2022-07-09T09:07:00;19.30;;;10.75;;
20669;SDS011;10494;50.868;4.180;2022-07-09T09:09:38;12.70;;;10.73;;
20669;SDS011;10494;50.868;4.180;2022-07-09T09:12:04;12.65;;;9.95;;
20669;SDS011;10494;50.868;4.180;2022-07-09T09:14:30;15.35;;;10.80;;
20669;SDS011;10494;50.868;4.180;2022-07-09T09:17:03;18.75;;;13.43;;
20669;SDS011;10494;50.868;4.180;2022-07-09T09:19:30;15.95;;;13.55;;
20669;SDS011;10494;50.868;4.180;2022-07-09T09:21:55;19.63;;;14.35;;
20669;SDS011;10494;50.868;4.180;2022-07-09T09:24:27;21.20;;;15.02;;
20669;SDS011;10494;50.868;4.180;2022-07-09T09:26:57;24.88;;;17.10;;
20669;SDS011;10494;50.868;4.180;2022-07-09T09:29:24;21.95;;;17.45;;
20669;SDS011;10494;50.868;4.180;2022-07-09T09:31:50;23.42;;;18.70;;
20669;SDS011;10494;50.868;4.180;2022-07-09T09:34:16;24.20;;;17.58;;
20669;SDS011;10494;50.868;4.180;2022-07-09T09:36:43;20.63;;;17.63;;
20669;SDS011;10494;50.868;4.180;2022-07-09T09:39:17;25.80;;;20.40;;
20669;SDS011;10494;50.868;4.180;2022-07-09T09:41:47;25.48;;;20.33;;
20669;SDS011;10494;50.868;4.180;2022-07-09T09:44:21;25.85;;;19.83;;
20669;SDS011;10494;50.868;4.180;2022-07-09T09:46:51;23.35;;;18.80;;
20669;SDS011;10494;50.868;4.180;2022-07-09T09:49:17;25.42;;;19.42;;
20669;SDS011;10494;50.868;4.180;2022-07-09T09:54:35;26.02;;;18.35;;
20669;SDS011;10494;50.868;4.180;2022-07-09T09:57:06;20.67;;;17.25;;
20669;SDS011;10494;50.868;4.180;2022-07-09T09:59:35;20.73;;;15.80;;
20669;SDS011;10494;50.868;4.180;2022-07-09T10:02:02;20.70;;;14.40;;
20669;SDS011;10494;50.868;4.180;2022-07-09T10:04:31;19.88;;;13.45;;
20669;SDS011;10494;50.868;4.180;2022-07-09T10:06:57;19.45;;;13.35;;
20669;SDS011;10494;50.868;4.180;2022-07-09T10:09:23;17.20;;;13.15;;
20669;SDS011;10494;50.868;4.180;2022-07-09T10:11:49;20.20;;;13.88;;
20669;SDS011;10494;50.868;4.180;2022-07-09T10:14:29;22.17;;;12.13;;
20669;SDS011;10494;50.868;4.180;2022-07-09T10:17:14;19.88;;;14.20;;
20669;SDS011;10494;50.868;4.180;2022-07-09T10:19:54;16.75;;;12.52;;
20669;SDS011;10494;50.868;4.180;2022-07-09T10:22:22;17.63;;;13.70;;
20669;SDS011;10494;50.868;4.180;2022-07-09T10:24:58;15.45;;;12.10;;
20669;SDS011;10494;50.868;4.180;2022-07-09T10:27:24;20.35;;;12.65;;
20669;SDS011;10494;50.868;4.180;2022-07-09T10:29:52;17.45;;;11.57;;
20669;SDS011;10494;50.868;4.180;2022-07-09T10:32:25;20.02;;;11.05;;
20669;SDS011;10494;50.868;4.180;2022-07-09T10:37:41;13.75;;;10.18;;
20669;SDS011;10494;50.868;4.180;2022-07-09T10:40:17;17.00;;;9.60;;
20669;SDS011;10494;50.868;4.180;2022-07-09T10:42:45;11.75;;;8.95;;
20669;SDS011;10494;50.868;4.180;2022-07-09T10:45:22;12.23;;;6.65;;
20669;SDS011;10494;50.868;4.180;2022-07-09T10:47:50;10.93;;;6.78;;
20669;SDS011;10494;50.868;4.180;2022-07-09T10:50:21;11.65;;;6.50;;
20669;SDS011;10494;50.868;4.180;2022-07-09T10:52:48;7.80;;;4.45;;
20669;SDS011;10494;50.868;4.180;2022-07-09T10:55:15;7.18;;;4.40;;
20669;SDS011;10494;50.868;4.180;2022-07-09T10:57:42;7.20;;;4.15;;
20669;SDS011;10494;50.868;4.180;2022-07-09T11:00:08;6.95;;;3.80;;
20669;SDS011;10494;50.868;4.180;2022-07-09T11:02:35;7.47;;;3.70;;
20669;SDS011;10494;50.868;4.180;2022-07-09T11:05:01;5.85;;;3.22;;
20669;SDS011;10494;50.868;4.180;2022-07-09T11:07:26;7.28;;;2.63;;
20669;SDS011;10494;50.868;4.180;2022-07-09T11:09:53;5.28;;;2.90;;
20669;SDS011;10494;50.868;4.180;2022-07-09T11:12:19;3.08;;;2.78;;
20669;SDS011;10494;50.868;4.180;2022-07-09T11:14:47;7.85;;;3.28;;
20669;SDS011;10494;50.868;4.180;2022-07-09T11:17:15;5.03;;;2.83;;
20669;SDS011;10494;50.868;4.180;2022-07-09T11:19:44;5.22;;;3.03;;
20669;SDS011;10494;50.868;4.180;2022-07-09T11:22:11;4.80;;;2.63;;
20669;SDS011;10494;50.868;4.180;2022-07-09T11:24:37;5.35;;;2.72;;
20669;SDS011;10494;50.868;4.180;2022-07-09T11:27:03;5.53;;;2.58;;
20669;SDS011;10494;50.868;4.180;2022-07-09T11:29:30;5.53;;;3.03;;
20669;SDS011;10494;50.868;4.180;2022-07-09T11:31:56;3.42;;;2.40;;
20669;SDS011;10494;50.868;4.180;2022-07-09T11:34:22;9.80;;;2.65;;
20669;SDS011;10494;50.868;4.180;2022-07-09T11:36:51;4.13;;;2.10;;
20669;SDS011;10494;50.868;4.180;2022-07-09T11:39:24;4.60;;;2.28;;
20669;SDS011;10494;50.868;4.180;2022-07-09T11:41:55;2.97;;;1.95;;
20669;SDS011;10494;50.868;4.180;2022-07-09T11:44:31;5.50;;;2.05;;
20669;SDS011;10494;50.868;4.180;2022-07-09T11:47:16;5.60;;;1.85;;
20669;SDS011;10494;50.868;4.180;2022-07-09T11:49:46;5.22;;;2.28;;
20669;SDS011;10494;50.868;4.180;2022-07-09T11:52:23;2.85;;;1.40;;
20669;SDS011;10494;50.868;4.180;2022-07-09T11:54:59;3.30;;;1.70;;
20669;SDS011;10494;50.868;4.180;2022-07-09T11:57:27;3.53;;;1.60;;
20669;SDS011;10494;50.868;4.180;2022-07-09T11:59:54;5.47;;;1.75;;
20669;SDS011;10494;50.868;4.180;2022-07-09T12:02:24;1.80;;;1.30;;
20669;SDS011;10494;50.868;4.180;2022-07-09T12:04:58;4.68;;;1.60;;
20669;SDS011;10494;50.868;4.180;2022-07-09T12:07:24;3.80;;;1.80;;
20669;SDS011;10494;50.868;4.180;2022-07-09T12:10:01;2.95;;;1.27;;
20669;SDS011;10494;50.868;4.180;2022-07-09T12:12:30;3.08;;;1.60;;
20669;SDS011;10494;50.868;4.180;2022-07-09T12:14:57;6.38;;;1.92;;
20669;SDS011;10494;50.868;4.180;2022-07-09T12:17:27;5.82;;;1.80;;
20669;SDS011;10494;50.868;4.180;2022-07-09T12:19:54;3.17;;;1.40;;
20669;SDS011;10494;50.868;4.180;2022-07-09T12:22:21;2.28;;;1.17;;
20669;SDS011;10494;50.868;4.180;2022-07-09T12:24:50;3.40;;;1.48;;
20669;SDS011;10494;50.868;4.180;2022-07-09T12:27:17;7.95;;;1.80;;
20669;SDS011;10494;50.868;4.180;2022-07-09T12:29:42;3.88;;;1.27;;
20669;SDS011;10494;50.868;4.180;2022-07-09T12:32:08;4.40;;;1.52;;
20669;SDS011;10494;50.868;4.180;2022-07-09T12:34:34;7.70;;;1.50;;
20669;SDS011;10494;50.868;4.180;2022-07-09T12:37:00;4.75;;;1.60;;
20669;SDS011;10494;50.868;4.180;2022-07-09T12:39:26;6.28;;;1.35;;
20669;SDS011;10494;50.868;4.180;2022-07-09T12:41:52;5.65;;;1.48;;
20669;SDS011;10494;50.868;4.180;2022-07-09T12:44:17;3.05;;;1.63;;
20669;SDS011;10494;50.868;4.180;2022-07-09T12:46:43;2.08;;;1.60;;
20669;SDS011;10494;50.868;4.180;2022-07-09T12:49:08;4.93;;;1.38;;
20669;SDS011;10494;50.868;4.180;2022-07-09T12:51:34;6.32;;;1.70;;
20669;SDS011;10494;50.868;4.180;2022-07-09T12:54:00;5.28;;;1.50;;
20669;SDS011;10494;50.868;4.180;2022-07-09T12:56:25;2.88;;;1.52;;
20669;SDS011;10494;50.868;4.180;2022-07-09T12:58:51;4.28;;;1.50;;
20669;SDS011;10494;50.868;4.180;2022-07-09T13:01:17;3.67;;;1.02;;
20669;SDS011;10494;50.868;4.180;2022-07-09T13:03:42;1.80;;;1.10;;
20669;SDS011;10494;50.868;4.180;2022-07-09T13:06:08;3.28;;;1.42;;
20669;SDS011;10494;50.868;4.180;2022-07-09T13:08:54;7.28;;;1.33;;
20669;SDS011;10494;50.868;4.180;2022-07-09T13:11:19;1.88;;;1.08;;
20669;SDS011;10494;50.868;4.180;2022-07-09T13:13:45;4.22;;;1.38;;
20669;SDS011;10494;50.868;4.180;2022-07-09T13:16:11;2.55;;;0.95;;
20669;SDS011;10494;50.868;4.180;2022-07-09T13:18:37;2.67;;;1.25;;
20669;SDS011;10494;50.868;4.180;2022-07-09T13:21:03;2.15;;;1.48;;
20669;SDS011;10494;50.868;4.180;2022-07-09T13:23:28;5.28;;;0.90;;
20669;SDS011;10494;50.868;4.180;2022-07-09T13:25:55;2.67;;;1.08;;
20669;SDS011;10494;50.868;4.180;2022-07-09T13:28:20;3.78;;;1.30;;
20669;SDS011;10494;50.868;4.180;2022-07-09T13:30:46;3.00;;;0.98;;
20669;SDS011;10494;50.868;4.180;2022-07-09T13:33:12;4.53;;;1.35;;
20669;SDS011;10494;50.868;4.180;2022-07-09T13:35:37;3.17;;;1.40;;
20669;SDS011;10494;50.868;4.180;2022-07-09T13:38:04;5.97;;;2.13;;
20669;SDS011;10494;50.868;4.180;2022-07-09T13:40:29;5.15;;;1.45;;
20669;SDS011;10494;50.868;4.180;2022-07-09T13:42:55;1.20;;;1.10;;
20669;SDS011;10494;50.868;4.180;2022-07-09T13:45:20;2.03;;;1.35;;
20669;SDS011;10494;50.868;4.180;2022-07-09T13:47:46;3.70;;;2.00;;
20669;SDS011;10494;50.868;4.180;2022-07-09T13:50:12;3.47;;;1.73;;
20669;SDS011;10494;50.868;4.180;2022-07-09T13:52:37;4.30;;;1.48;;
20669;SDS011;10494;50.868;4.180;2022-07-09T13:55:03;3.63;;;1.40;;
20669;SDS011;10494;50.868;4.180;2022-07-09T13:57:29;2.40;;;1.20;;
20669;SDS011;10494;50.868;4.180;2022-07-09T13:59:54;1.70;;;1.08;;
20669;SDS011;10494;50.868;4.180;2022-07-09T14:02:20;4.88;;;1.13;;
20669;SDS011;10494;50.868;4.180;2022-07-09T14:04:46;2.55;;;1.10;;
20669;SDS011;10494;50.868;4.180;2022-07-09T14:07:13;3.42;;;1.30;;
20669;SDS011;10494;50.868;4.180;2022-07-09T14:09:38;2.03;;;1.38;;
20669;SDS011;10494;50.868;4.180;2022-07-09T14:12:04;2.47;;;1.10;;
20669;SDS011;10494;50.868;4.180;2022-07-09T14:14:30;3.00;;;1.33;;
20669;SDS011;10494;50.868;4.180;2022-07-09T14:16:55;5.72;;;1.17;;
20669;SDS011;10494;50.868;4.180;2022-07-09T14:19:21;9.18;;;1.20;;
20669;SDS011;10494;50.868;4.180;2022-07-09T14:21:47;3.70;;;1.10;;
20669;SDS011;10494;50.868;4.180;2022-07-09T14:24:12;6.47;;;1.38;;
20669;SDS011;10494;50.868;4.180;2022-07-09T14:26:39;4.28;;;0.85;;
20669;SDS011;10494;50.868;4.180;2022-07-09T14:29:09;2.78;;;1.08;;
20669;SDS011;10494;50.868;4.180;2022-07-09T14:31:35;4.35;;;1.23;;
20669;SDS011;10494;50.868;4.180;2022-07-09T14:34:01;4.03;;;1.55;;
20669;SDS011;10494;50.868;4.180;2022-07-09T14:36:26;3.72;;;1.25;;
20669;SDS011;10494;50.868;4.180;2022-07-09T14:38:52;6.20;;;1.48;;
20669;SDS011;10494;50.868;4.180;2022-07-09T14:41:17;3.60;;;1.40;;
20669;SDS011;10494;50.868;4.180;2022-07-09T14:43:43;4.95;;;1.45;;